sensor_id;sensor_type;location;lat;lon;timestamp;temperature;humidity
32139;DHT22;18644;48.700;9.210;2024-03-17T00:00:20;10.00;62.90
32139;DHT22;18644;48.700;9.210;2024-03-17T00:02:47;9.90;62.80
32139;DHT22;18644;48.700;9.210;2024-03-17T00:05:13;9.90;62.80
32139;DHT22;18644;48.700;9.210;2024-03-17T00:07:42;9.80;62.80
32139;DHT22;18644;48.700;9.210;2024-03-17T00:10:08;9.80;62.90
32139;DHT22;18644;48.700;9.210;2024-03-17T00:12:35;9.80;62.80
32139;DHT22;18644;48.700;9.210;2024-03-17T00:15:02;9.70;62.90
32139;DHT22;18644;48.700;9.210;2024-03-17T00:17:29;9.70;62.90
32139;DHT22;18644;48.700;9.210;2024-03-17T00:19:55;9.60;62.90
32139;DHT22;18644;48.700;9.210;2024-03-17T00:22:22;9.60;63.30
32139;DHT22;18644;48.700;9.210;2024-03-17T00:24:49;9.60;63.70
32139;DHT22;18644;48.700;9.210;2024-03-17T00:27:16;9.50;63.80
32139;DHT22;18644;48.700;9.210;2024-03-17T00:29:42;9.50;64.00
32139;DHT22;18644;48.700;9.210;2024-03-17T00:32:09;9.50;64.00
32139;DHT22;18644;48.700;9.210;2024-03-17T00:34:37;9.50;64.00
32139;DHT22;18644;48.700;9.210;2024-03-17T00:37:04;9.50;64.00
32139;DHT22;18644;48.700;9.210;2024-03-17T00:39:29;9.50;63.90
32139;DHT22;18644;48.700;9.210;2024-03-17T00:41:59;9.40;63.90
32139;DHT22;18644;48.700;9.210;2024-03-17T00:44:25;9.40;63.80
32139;DHT22;18644;48.700;9.210;2024-03-17T00:46:51;9.40;63.80
32139;DHT22;18644;48.700;9.210;2024-03-17T00:49:17;9.40;63.90
32139;DHT22;18644;48.700;9.210;2024-03-17T00:51:44;9.40;64.00
32139;DHT22;18644;48.700;9.210;2024-03-17T00:54:13;9.40;64.00
32139;DHT22;18644;48.700;9.210;2024-03-17T00:56:40;9.30;64.00
32139;DHT22;18644;48.700;9.210;2024-03-17T00:59:07;9.30;64.00
32139;DHT22;18644;48.700;9.210;2024-03-17T01:01:34;9.30;64.00
32139;DHT22;18644;48.700;9.210;2024-03-17T01:04:00;9.30;64.00
32139;DHT22;18644;48.700;9.210;2024-03-17T01:06:26;9.30;64.20
32139;DHT22;18644;48.700;9.210;2024-03-17T01:08:52;9.30;64.30
32139;DHT22;18644;48.700;9.210;2024-03-17T01:11:19;9.30;64.40
32139;DHT22;18644;48.700;9.210;2024-03-17T01:13:45;9.30;64.50
32139;DHT22;18644;48.700;9.210;2024-03-17T01:16:14;9.30;64.60
32139;DHT22;18644;48.700;9.210;2024-03-17T01:18:40;9.30;64.70
32139;DHT22;18644;48.700;9.210;2024-03-17T01:21:08;9.30;64.70
32139;DHT22;18644;48.700;9.210;2024-03-17T01:23:34;9.30;64.80
32139;DHT22;18644;48.700;9.210;2024-03-17T01:26:01;9.30;64.90
32139;DHT22;18644;48.700;9.210;2024-03-17T01:28:27;9.30;64.90
32139;DHT22;18644;48.700;9.210;2024-03-17T01:30:54;9.30;65.00
32139;DHT22;18644;48.700;9.210;2024-03-17T01:33:21;9.30;65.00
32139;DHT22;18644;48.700;9.210;2024-03-17T01:35:48;9.30;65.30
32139;DHT22;18644;48.700;9.210;2024-03-17T01:38:15;9.40;65.50
32139;DHT22;18644;48.700;9.210;2024-03-17T01:40:41;9.40;65.50
32139;DHT22;18644;48.700;9.210;2024-03-17T01:43:10;9.40;65.70
32139;DHT22;18644;48.700;9.210;2024-03-17T01:45:36;9.40;65.80
32139;DHT22;18644;48.700;9.210;2024-03-17T01:48:04;9.40;65.90
32139;DHT22;18644;48.700;9.210;2024-03-17T01:50:37;9.50;66.00
32139;DHT22;18644;48.700;9.210;2024-03-17T01:53:05;9.50;66.10
32139;DHT22;18644;48.700;9.210;2024-03-17T01:55:32;9.50;66.10
32139;DHT22;18644;48.700;9.210;2024-03-17T01:58:00;9.50;66.10
32139;DHT22;18644;48.700;9.210;2024-03-17T02:00:27;9.60;66.20
32139;DHT22;18644;48.700;9.210;2024-03-17T02:02:56;9.60;66.20
32139;DHT22;18644;48.700;9.210;2024-03-17T02:05:22;9.60;66.20
32139;DHT22;18644;48.700;9.210;2024-03-17T02:07:50;9.60;66.10
32139;DHT22;18644;48.700;9.210;2024-03-17T02:10:16;9.70;66.20
32139;DHT22;18644;48.700;9.210;2024-03-17T02:12:43;9.70;66.10
32139;DHT22;18644;48.700;9.210;2024-03-17T02:15:09;9.70;66.10
32139;DHT22;18644;48.700;9.210;2024-03-17T02:17:36;9.70;66.00
32139;DHT22;18644;48.700;9.210;2024-03-17T02:20:03;9.80;66.00
32139;DHT22;18644;48.700;9.210;2024-03-17T02:22:34;9.80;66.10
32139;DHT22;18644;48.700;9.210;2024-03-17T02:25:00;9.80;65.90
32139;DHT22;18644;48.700;9.210;2024-03-17T02:27:27;9.80;65.90
32139;DHT22;18644;48.700;9.210;2024-03-17T02:29:53;9.80;65.90
32139;DHT22;18644;48.700;9.210;2024-03-17T02:32:20;9.80;66.00
32139;DHT22;18644;48.700;9.210;2024-03-17T02:34:48;9.80;65.90
32139;DHT22;18644;48.700;9.210;2024-03-17T02:37:15;9.90;65.90
32139;DHT22;18644;48.700;9.210;2024-03-17T02:39:42;9.80;65.70
32139;DHT22;18644;48.700;9.210;2024-03-17T02:42:10;9.80;65.80
32139;DHT22;18644;48.700;9.210;2024-03-17T02:44:38;9.80;65.70
32139;DHT22;18644;48.700;9.210;2024-03-17T02:47:05;9.90;65.80
32139;DHT22;18644;48.700;9.210;2024-03-17T02:49:34;9.80;65.80
32139;DHT22;18644;48.700;9.210;2024-03-17T02:52:03;9.90;65.90
32139;DHT22;18644;48.700;9.210;2024-03-17T02:54:30;9.90;65.90
32139;DHT22;18644;48.700;9.210;2024-03-17T02:56:59;9.90;66.00
32139;DHT22;18644;48.700;9.210;2024-03-17T02:59:26;9.90;66.80
32139;DHT22;18644;48.700;9.210;2024-03-17T03:01:53;9.90;65.90
32139;DHT22;18644;48.700;9.210;2024-03-17T03:04:20;9.90;65.90
32139;DHT22;18644;48.700;9.210;2024-03-17T03:06:47;9.80;65.70
32139;DHT22;18644;48.700;9.210;2024-03-17T03:09:14;9.80;65.60
32139;DHT22;18644;48.700;9.210;2024-03-17T03:11:46;9.80;65.50
32139;DHT22;18644;48.700;9.210;2024-03-17T03:14:14;9.80;65.90
32139;DHT22;18644;48.700;9.210;2024-03-17T03:16:41;9.80;65.20
32139;DHT22;18644;48.700;9.210;2024-03-17T03:19:08;9.80;65.20
32139;DHT22;18644;48.700;9.210;2024-03-17T03:21:35;9.70;65.20
32139;DHT22;18644;48.700;9.210;2024-03-17T03:24:02;9.70;65.30
32139;DHT22;18644;48.700;9.210;2024-03-17T03:26:29;9.70;65.40
32139;DHT22;18644;48.700;9.210;2024-03-17T03:28:56;9.70;65.50
32139;DHT22;18644;48.700;9.210;2024-03-17T03:31:24;9.60;65.40
32139;DHT22;18644;48.700;9.210;2024-03-17T03:33:51;9.60;65.40
32139;DHT22;18644;48.700;9.210;2024-03-17T03:36:18;9.60;65.40
32139;DHT22;18644;48.700;9.210;2024-03-17T03:38:46;9.60;65.30
32139;DHT22;18644;48.700;9.210;2024-03-17T03:41:14;9.60;65.30
32139;DHT22;18644;48.700;9.210;2024-03-17T03:43:42;9.50;65.40
32139;DHT22;18644;48.700;9.210;2024-03-17T03:46:09;9.50;65.60
32139;DHT22;18644;48.700;9.210;2024-03-17T03:48:38;9.50;65.70
32139;DHT22;18644;48.700;9.210;2024-03-17T03:51:05;9.50;65.70
32139;DHT22;18644;48.700;9.210;2024-03-17T03:53:32;9.50;65.70
32139;DHT22;18644;48.700;9.210;2024-03-17T03:56:02;9.50;65.60
32139;DHT22;18644;48.700;9.210;2024-03-17T03:58:31;9.50;65.50
32139;DHT22;18644;48.700;9.210;2024-03-17T04:00:59;9.40;65.40
32139;DHT22;18644;48.700;9.210;2024-03-17T04:03:27;9.40;65.40
32139;DHT22;18644;48.700;9.210;2024-03-17T04:06:02;9.40;65.50
32139;DHT22;18644;48.700;9.210;2024-03-17T04:08:30;9.40;65.70
32139;DHT22;18644;48.700;9.210;2024-03-17T04:10:58;9.40;65.70
32139;DHT22;18644;48.700;9.210;2024-03-17T04:13:26;9.30;65.70
32139;DHT22;18644;48.700;9.210;2024-03-17T04:15:55;9.40;65.90
32139;DHT22;18644;48.700;9.210;2024-03-17T04:18:22;9.30;65.90
32139;DHT22;18644;48.700;9.210;2024-03-17T04:20:51;9.30;66.00
32139;DHT22;18644;48.700;9.210;2024-03-17T04:23:20;9.30;66.10
32139;DHT22;18644;48.700;9.210;2024-03-17T04:25:47;9.30;66.10
32139;DHT22;18644;48.700;9.210;2024-03-17T04:28:14;9.40;66.20
32139;DHT22;18644;48.700;9.210;2024-03-17T04:30:41;9.30;66.20
32139;DHT22;18644;48.700;9.210;2024-03-17T04:33:09;9.30;66.20
32139;DHT22;18644;48.700;9.210;2024-03-17T04:35:36;9.30;66.30
32139;DHT22;18644;48.700;9.210;2024-03-17T04:38:04;9.30;66.40
32139;DHT22;18644;48.700;9.210;2024-03-17T04:40:32;9.30;66.40
32139;DHT22;18644;48.700;9.210;2024-03-17T04:42:59;9.40;66.50
32139;DHT22;18644;48.700;9.210;2024-03-17T04:45:26;9.30;66.40
32139;DHT22;18644;48.700;9.210;2024-03-17T04:47:53;9.40;66.40
32139;DHT22;18644;48.700;9.210;2024-03-17T04:50:20;9.30;66.20
32139;DHT22;18644;48.700;9.210;2024-03-17T04:52:47;9.30;66.20
32139;DHT22;18644;48.700;9.210;2024-03-17T04:55:15;9.30;66.20
32139;DHT22;18644;48.700;9.210;2024-03-17T04:57:43;9.30;66.20
32139;DHT22;18644;48.700;9.210;2024-03-17T05:00:11;9.30;66.20
32139;DHT22;18644;48.700;9.210;2024-03-17T05:02:39;9.30;66.10
32139;DHT22;18644;48.700;9.210;2024-03-17T05:05:06;9.30;66.00
32139;DHT22;18644;48.700;9.210;2024-03-17T05:07:35;9.30;66.10
32139;DHT22;18644;48.700;9.210;2024-03-17T05:10:03;9.30;66.00
32139;DHT22;18644;48.700;9.210;2024-03-17T05:12:31;9.20;66.00
32139;DHT22;18644;48.700;9.210;2024-03-17T05:14:59;9.20;65.90
32139;DHT22;18644;48.700;9.210;2024-03-17T05:17:26;9.20;65.90
32139;DHT22;18644;48.700;9.210;2024-03-17T05:19:52;9.20;65.90
32139;DHT22;18644;48.700;9.210;2024-03-17T05:22:20;9.20;65.80
32139;DHT22;18644;48.700;9.210;2024-03-17T05:24:47;9.10;65.70
32139;DHT22;18644;48.700;9.210;2024-03-17T05:27:14;9.10;65.70
32139;DHT22;18644;48.700;9.210;2024-03-17T05:29:40;9.10;65.70
32139;DHT22;18644;48.700;9.210;2024-03-17T05:32:09;9.10;65.80
32139;DHT22;18644;48.700;9.210;2024-03-17T05:34:36;9.00;65.80
32139;DHT22;18644;48.700;9.210;2024-03-17T05:37:04;9.00;65.90
32139;DHT22;18644;48.700;9.210;2024-03-17T05:39:31;9.00;66.00
32139;DHT22;18644;48.700;9.210;2024-03-17T05:41:57;9.00;65.90
32139;DHT22;18644;48.700;9.210;2024-03-17T05:44:24;9.00;66.00
32139;DHT22;18644;48.700;9.210;2024-03-17T05:46:53;8.90;66.10
32139;DHT22;18644;48.700;9.210;2024-03-17T05:49:24;8.90;66.20
32139;DHT22;18644;48.700;9.210;2024-03-17T05:51:51;8.90;66.20
32139;DHT22;18644;48.700;9.210;2024-03-17T05:54:19;8.90;66.30
32139;DHT22;18644;48.700;9.210;2024-03-17T05:56:46;8.90;66.40
32139;DHT22;18644;48.700;9.210;2024-03-17T05:59:13;8.90;66.40
32139;DHT22;18644;48.700;9.210;2024-03-17T06:01:39;8.90;66.50
32139;DHT22;18644;48.700;9.210;2024-03-17T06:04:06;8.90;66.50
32139;DHT22;18644;48.700;9.210;2024-03-17T06:06:36;8.90;66.50
32139;DHT22;18644;48.700;9.210;2024-03-17T06:09:03;8.90;66.40
32139;DHT22;18644;48.700;9.210;2024-03-17T06:11:29;8.90;66.40
32139;DHT22;18644;48.700;9.210;2024-03-17T06:14:00;8.90;66.50
32139;DHT22;18644;48.700;9.210;2024-03-17T06:16:29;8.90;66.60
32139;DHT22;18644;48.700;9.210;2024-03-17T06:18:57;8.90;66.60
32139;DHT22;18644;48.700;9.210;2024-03-17T06:21:23;8.90;66.80
32139;DHT22;18644;48.700;9.210;2024-03-17T06:23:52;8.90;67.10
32139;DHT22;18644;48.700;9.210;2024-03-17T06:26:19;8.90;67.40
32139;DHT22;18644;48.700;9.210;2024-03-17T06:28:46;8.90;67.60
32139;DHT22;18644;48.700;9.210;2024-03-17T06:31:13;9.00;67.90
32139;DHT22;18644;48.700;9.210;2024-03-17T06:33:41;9.00;68.40
32139;DHT22;18644;48.700;9.210;2024-03-17T06:36:08;9.10;68.30
32139;DHT22;18644;48.700;9.210;2024-03-17T06:38:35;9.10;68.50
32139;DHT22;18644;48.700;9.210;2024-03-17T06:41:03;9.20;68.50
32139;DHT22;18644;48.700;9.210;2024-03-17T06:43:30;9.20;68.50
32139;DHT22;18644;48.700;9.210;2024-03-17T06:45:59;9.30;68.60
32139;DHT22;18644;48.700;9.210;2024-03-17T06:48:27;9.40;68.80
32139;DHT22;18644;48.700;9.210;2024-03-17T06:50:55;9.40;69.00
32139;DHT22;18644;48.700;9.210;2024-03-17T06:53:22;9.50;69.30
32139;DHT22;18644;48.700;9.210;2024-03-17T06:55:52;9.60;69.50
32139;DHT22;18644;48.700;9.210;2024-03-17T06:58:22;9.70;69.60
32139;DHT22;18644;48.700;9.210;2024-03-17T07:00:56;9.80;69.50
32139;DHT22;18644;48.700;9.210;2024-03-17T07:03:25;9.90;69.40
32139;DHT22;18644;48.700;9.210;2024-03-17T07:05:53;10.00;69.30
32139;DHT22;18644;48.700;9.210;2024-03-17T07:08:21;10.10;69.40
32139;DHT22;18644;48.700;9.210;2024-03-17T07:10:59;10.20;69.30
32139;DHT22;18644;48.700;9.210;2024-03-17T07:13:30;10.30;69.20
32139;DHT22;18644;48.700;9.210;2024-03-17T07:15:58;10.30;69.00
32139;DHT22;18644;48.700;9.210;2024-03-17T07:18:26;10.40;69.00
32139;DHT22;18644;48.700;9.210;2024-03-17T07:20:56;10.50;69.00
32139;DHT22;18644;48.700;9.210;2024-03-17T07:23:23;10.50;68.80
32139;DHT22;18644;48.700;9.210;2024-03-17T07:25:54;10.60;68.70
32139;DHT22;18644;48.700;9.210;2024-03-17T07:28:21;10.70;68.70
32139;DHT22;18644;48.700;9.210;2024-03-17T07:30:51;10.70;68.70
32139;DHT22;18644;48.700;9.210;2024-03-17T07:33:19;10.80;68.80
32139;DHT22;18644;48.700;9.210;2024-03-17T07:35:48;10.90;68.80
32139;DHT22;18644;48.700;9.210;2024-03-17T07:38:15;10.90;68.90
32139;DHT22;18644;48.700;9.210;2024-03-17T07:40:42;11.10;69.20
32139;DHT22;18644;48.700;9.210;2024-03-17T07:43:09;11.20;69.50
32139;DHT22;18644;48.700;9.210;2024-03-17T07:45:35;11.30;69.70
32139;DHT22;18644;48.700;9.210;2024-03-17T07:48:04;11.40;70.00
32139;DHT22;18644;48.700;9.210;2024-03-17T07:50:32;11.60;70.10
32139;DHT22;18644;48.700;9.210;2024-03-17T07:53:00;11.70;69.80
32139;DHT22;18644;48.700;9.210;2024-03-17T07:55:28;11.90;69.90
32139;DHT22;18644;48.700;9.210;2024-03-17T07:57:56;12.00;70.00
32139;DHT22;18644;48.700;9.210;2024-03-17T08:00:23;12.20;70.10
32139;DHT22;18644;48.700;9.210;2024-03-17T08:02:50;12.40;69.90
32139;DHT22;18644;48.700;9.210;2024-03-17T08:05:19;12.60;69.60
32139;DHT22;18644;48.700;9.210;2024-03-17T08:07:47;12.70;69.20
32139;DHT22;18644;48.700;9.210;2024-03-17T08:10:14;12.90;68.70
32139;DHT22;18644;48.700;9.210;2024-03-17T08:12:43;12.90;68.20
32139;DHT22;18644;48.700;9.210;2024-03-17T08:15:10;13.10;68.20
32139;DHT22;18644;48.700;9.210;2024-03-17T08:17:37;13.20;68.10
32139;DHT22;18644;48.700;9.210;2024-03-17T08:20:06;13.30;68.00
32139;DHT22;18644;48.700;9.210;2024-03-17T08:22:34;13.40;67.90
32139;DHT22;18644;48.700;9.210;2024-03-17T08:25:01;13.50;67.70
32139;DHT22;18644;48.700;9.210;2024-03-17T08:27:30;13.60;67.60
32139;DHT22;18644;48.700;9.210;2024-03-17T08:29:57;13.80;67.20
32139;DHT22;18644;48.700;9.210;2024-03-17T08:32:23;13.90;66.80
32139;DHT22;18644;48.700;9.210;2024-03-17T08:34:50;14.00;66.30
32139;DHT22;18644;48.700;9.210;2024-03-17T08:37:17;14.10;65.70
32139;DHT22;18644;48.700;9.210;2024-03-17T08:39:46;14.10;65.40
32139;DHT22;18644;48.700;9.210;2024-03-17T08:42:14;14.20;65.20
32139;DHT22;18644;48.700;9.210;2024-03-17T08:44:41;14.30;65.00
32139;DHT22;18644;48.700;9.210;2024-03-17T08:47:07;14.30;64.70
32139;DHT22;18644;48.700;9.210;2024-03-17T08:49:34;14.40;64.70
32139;DHT22;18644;48.700;9.210;2024-03-17T08:52:01;14.50;64.70
32139;DHT22;18644;48.700;9.210;2024-03-17T08:54:28;14.60;64.60
32139;DHT22;18644;48.700;9.210;2024-03-17T08:56:56;14.70;64.20
32139;DHT22;18644;48.700;9.210;2024-03-17T08:59:23;14.80;64.00
32139;DHT22;18644;48.700;9.210;2024-03-17T09:01:50;14.90;63.80
32139;DHT22;18644;48.700;9.210;2024-03-17T09:04:17;15.00;63.70
32139;DHT22;18644;48.700;9.210;2024-03-17T09:06:44;15.10;63.70
32139;DHT22;18644;48.700;9.210;2024-03-17T09:09:11;15.20;63.90
32139;DHT22;18644;48.700;9.210;2024-03-17T09:11:39;15.30;63.50
32139;DHT22;18644;48.700;9.210;2024-03-17T09:14:08;15.50;63.30
32139;DHT22;18644;48.700;9.210;2024-03-17T09:16:37;15.60;62.90
32139;DHT22;18644;48.700;9.210;2024-03-17T09:19:03;15.70;62.90
32139;DHT22;18644;48.700;9.210;2024-03-17T09:21:30;15.80;62.90
32139;DHT22;18644;48.700;9.210;2024-03-17T09:23:57;15.90;62.80
32139;DHT22;18644;48.700;9.210;2024-03-17T09:26:25;16.00;62.70
32139;DHT22;18644;48.700;9.210;2024-03-17T09:28:52;16.10;62.10
32139;DHT22;18644;48.700;9.210;2024-03-17T09:31:20;16.20;62.30
32139;DHT22;18644;48.700;9.210;2024-03-17T09:33:47;16.40;62.00
32139;DHT22;18644;48.700;9.210;2024-03-17T09:36:14;16.50;61.20
32139;DHT22;18644;48.700;9.210;2024-03-17T09:38:41;16.50;60.70
32139;DHT22;18644;48.700;9.210;2024-03-17T09:41:19;16.60;60.50
32139;DHT22;18644;48.700;9.210;2024-03-17T09:43:50;16.80;60.00
32139;DHT22;18644;48.700;9.210;2024-03-17T09:46:22;16.90;60.40
32139;DHT22;18644;48.700;9.210;2024-03-17T09:48:49;16.90;59.00
32139;DHT22;18644;48.700;9.210;2024-03-17T09:51:20;17.00;59.20
32139;DHT22;18644;48.700;9.210;2024-03-17T09:53:48;17.10;59.00
32139;DHT22;18644;48.700;9.210;2024-03-17T09:56:16;17.20;58.80
32139;DHT22;18644;48.700;9.210;2024-03-17T09:58:44;17.30;58.80
32139;DHT22;18644;48.700;9.210;2024-03-17T10:01:11;17.40;58.50
32139;DHT22;18644;48.700;9.210;2024-03-17T10:03:44;17.40;57.70
32139;DHT22;18644;48.700;9.210;2024-03-17T10:06:12;17.50;57.30
32139;DHT22;18644;48.700;9.210;2024-03-17T10:08:41;17.50;57.40
32139;DHT22;18644;48.700;9.210;2024-03-17T10:11:09;17.60;57.10
32139;DHT22;18644;48.700;9.210;2024-03-17T10:13:36;17.70;57.10
32139;DHT22;18644;48.700;9.210;2024-03-17T10:16:03;17.70;56.60
32139;DHT22;18644;48.700;9.210;2024-03-17T10:18:31;17.80;55.80
32139;DHT22;18644;48.700;9.210;2024-03-17T10:21:00;17.90;55.80
32139;DHT22;18644;48.700;9.210;2024-03-17T10:23:27;17.90;55.50
32139;DHT22;18644;48.700;9.210;2024-03-17T10:25:54;18.00;55.00
32139;DHT22;18644;48.700;9.210;2024-03-17T10:28:21;18.10;54.20
32139;DHT22;18644;48.700;9.210;2024-03-17T10:30:57;18.10;54.00
32139;DHT22;18644;48.700;9.210;2024-03-17T10:33:26;18.20;53.70
32139;DHT22;18644;48.700;9.210;2024-03-17T10:36:01;18.20;54.30
32139;DHT22;18644;48.700;9.210;2024-03-17T10:38:31;18.30;53.60
32139;DHT22;18644;48.700;9.210;2024-03-17T10:41:00;18.40;54.40
32139;DHT22;18644;48.700;9.210;2024-03-17T10:43:27;18.50;54.70
32139;DHT22;18644;48.700;9.210;2024-03-17T10:45:56;18.70;54.60
32139;DHT22;18644;48.700;9.210;2024-03-17T10:48:29;18.80;54.70
32139;DHT22;18644;48.700;9.210;2024-03-17T10:51:00;19.00;54.50
32139;DHT22;18644;48.700;9.210;2024-03-17T10:53:28;19.20;55.10
32139;DHT22;18644;48.700;9.210;2024-03-17T10:56:03;19.30;53.80
32139;DHT22;18644;48.700;9.210;2024-03-17T10:58:35;19.40;52.90
32139;DHT22;18644;48.700;9.210;2024-03-17T11:01:05;19.50;52.70
32139;DHT22;18644;48.700;9.210;2024-03-17T11:03:33;19.60;52.30
32139;DHT22;18644;48.700;9.210;2024-03-17T11:06:04;19.60;52.00
32139;DHT22;18644;48.700;9.210;2024-03-17T11:08:32;19.70;51.80
32139;DHT22;18644;48.700;9.210;2024-03-17T11:11:00;19.70;52.20
32139;DHT22;18644;48.700;9.210;2024-03-17T11:13:30;19.70;52.30
32139;DHT22;18644;48.700;9.210;2024-03-17T11:15:59;19.80;52.10
32139;DHT22;18644;48.700;9.210;2024-03-17T11:18:34;19.80;52.20
32139;DHT22;18644;48.700;9.210;2024-03-17T11:21:04;19.90;52.50
32139;DHT22;18644;48.700;9.210;2024-03-17T11:23:36;20.00;52.60
32139;DHT22;18644;48.700;9.210;2024-03-17T11:26:05;20.10;52.20
32139;DHT22;18644;48.700;9.210;2024-03-17T11:28:47;20.10;51.50
32139;DHT22;18644;48.700;9.210;2024-03-17T11:31:32;20.20;51.40
32139;DHT22;18644;48.700;9.210;2024-03-17T11:34:06;20.30;50.30
32139;DHT22;18644;48.700;9.210;2024-03-17T11:36:52;20.30;50.90
32139;DHT22;18644;48.700;9.210;2024-03-17T11:39:20;20.30;50.80
32139;DHT22;18644;48.700;9.210;2024-03-17T11:41:47;20.30;50.90
32139;DHT22;18644;48.700;9.210;2024-03-17T11:44:16;20.40;52.00
32139;DHT22;18644;48.700;9.210;2024-03-17T11:46:51;20.50;51.50
32139;DHT22;18644;48.700;9.210;2024-03-17T11:49:20;20.50;50.90
32139;DHT22;18644;48.700;9.210;2024-03-17T11:51:49;20.60;51.00
32139;DHT22;18644;48.700;9.210;2024-03-17T11:54:18;20.70;51.00
32139;DHT22;18644;48.700;9.210;2024-03-17T11:56:48;20.70;50.80
32139;DHT22;18644;48.700;9.210;2024-03-17T11:59:16;20.80;50.90
32139;DHT22;18644;48.700;9.210;2024-03-17T12:01:44;20.90;50.70
32139;DHT22;18644;48.700;9.210;2024-03-17T12:04:11;20.90;50.50
32139;DHT22;18644;48.700;9.210;2024-03-17T12:06:39;20.90;50.20
32139;DHT22;18644;48.700;9.210;2024-03-17T12:09:10;21.00;50.20
32139;DHT22;18644;48.700;9.210;2024-03-17T12:11:39;21.00;49.50
32139;DHT22;18644;48.700;9.210;2024-03-17T12:14:15;21.00;49.30
32139;DHT22;18644;48.700;9.210;2024-03-17T12:16:49;21.00;48.70
32139;DHT22;18644;48.700;9.210;2024-03-17T12:19:17;21.00;48.70
32139;DHT22;18644;48.700;9.210;2024-03-17T12:21:45;21.00;48.80
32139;DHT22;18644;48.700;9.210;2024-03-17T12:24:17;21.00;48.20
32139;DHT22;18644;48.700;9.210;2024-03-17T12:26:46;20.90;48.00
32139;DHT22;18644;48.700;9.210;2024-03-17T12:29:23;20.90;48.50
32139;DHT22;18644;48.700;9.210;2024-03-17T12:31:53;20.80;48.30
32139;DHT22;18644;48.700;9.210;2024-03-17T12:34:22;20.80;48.70
32139;DHT22;18644;48.700;9.210;2024-03-17T12:36:51;20.80;48.70
32139;DHT22;18644;48.700;9.210;2024-03-17T12:39:19;20.70;48.10
32139;DHT22;18644;48.700;9.210;2024-03-17T12:42:03;20.70;47.90
32139;DHT22;18644;48.700;9.210;2024-03-17T12:44:31;20.60;47.10
32139;DHT22;18644;48.700;9.210;2024-03-17T12:46:58;20.60;47.60
32139;DHT22;18644;48.700;9.210;2024-03-17T12:49:26;20.50;47.40
32139;DHT22;18644;48.700;9.210;2024-03-17T12:51:54;20.40;47.80
32139;DHT22;18644;48.700;9.210;2024-03-17T12:54:22;20.40;48.40
32139;DHT22;18644;48.700;9.210;2024-03-17T12:56:51;20.30;48.60
32139;DHT22;18644;48.700;9.210;2024-03-17T12:59:41;20.30;48.40
32139;DHT22;18644;48.700;9.210;2024-03-17T13:02:26;20.30;47.70
32139;DHT22;18644;48.700;9.210;2024-03-17T13:05:07;20.20;47.80
32139;DHT22;18644;48.700;9.210;2024-03-17T13:07:37;20.20;47.30
32139;DHT22;18644;48.700;9.210;2024-03-17T13:10:04;20.20;47.30
32139;DHT22;18644;48.700;9.210;2024-03-17T13:12:33;20.10;46.80
32139;DHT22;18644;48.700;9.210;2024-03-17T13:15:01;20.00;46.30
32139;DHT22;18644;48.700;9.210;2024-03-17T13:17:28;19.90;46.60
32139;DHT22;18644;48.700;9.210;2024-03-17T13:19:56;19.80;47.00
32139;DHT22;18644;48.700;9.210;2024-03-17T13:22:23;19.70;47.30
32139;DHT22;18644;48.700;9.210;2024-03-17T13:24:49;19.70;47.80
32139;DHT22;18644;48.700;9.210;2024-03-17T13:27:16;19.70;48.10
32139;DHT22;18644;48.700;9.210;2024-03-17T13:29:47;19.70;48.20
32139;DHT22;18644;48.700;9.210;2024-03-17T13:32:16;19.70;48.00
32139;DHT22;18644;48.700;9.210;2024-03-17T13:34:46;19.70;47.80
32139;DHT22;18644;48.700;9.210;2024-03-17T13:37:13;19.70;47.20
32139;DHT22;18644;48.700;9.210;2024-03-17T13:39:39;19.70;47.10
32139;DHT22;18644;48.700;9.210;2024-03-17T13:42:08;19.60;47.40
32139;DHT22;18644;48.700;9.210;2024-03-17T13:44:35;19.60;47.20
32139;DHT22;18644;48.700;9.210;2024-03-17T13:47:01;19.60;46.70
32139;DHT22;18644;48.700;9.210;2024-03-17T13:49:30;19.50;46.50
32139;DHT22;18644;48.700;9.210;2024-03-17T13:51:59;19.50;46.20
32139;DHT22;18644;48.700;9.210;2024-03-17T13:54:26;19.40;46.20
32139;DHT22;18644;48.700;9.210;2024-03-17T13:56:53;19.30;46.30
32139;DHT22;18644;48.700;9.210;2024-03-17T13:59:20;19.20;46.10
32139;DHT22;18644;48.700;9.210;2024-03-17T14:01:48;19.20;46.70
32139;DHT22;18644;48.700;9.210;2024-03-17T14:04:15;19.20;47.00
32139;DHT22;18644;48.700;9.210;2024-03-17T14:06:45;19.20;47.20
32139;DHT22;18644;48.700;9.210;2024-03-17T14:09:15;19.20;47.00
32139;DHT22;18644;48.700;9.210;2024-03-17T14:11:43;19.20;46.70
32139;DHT22;18644;48.700;9.210;2024-03-17T14:14:11;19.20;46.30
32139;DHT22;18644;48.700;9.210;2024-03-17T14:16:38;19.20;46.70
32139;DHT22;18644;48.700;9.210;2024-03-17T14:19:06;19.20;47.00
32139;DHT22;18644;48.700;9.210;2024-03-17T14:21:33;19.20;47.20
32139;DHT22;18644;48.700;9.210;2024-03-17T14:24:01;19.30;47.90
32139;DHT22;18644;48.700;9.210;2024-03-17T14:26:32;19.40;47.60
32139;DHT22;18644;48.700;9.210;2024-03-17T14:29:00;19.50;48.30
32139;DHT22;18644;48.700;9.210;2024-03-17T14:31:30;19.60;47.50
32139;DHT22;18644;48.700;9.210;2024-03-17T14:33:58;19.70;47.60
32139;DHT22;18644;48.700;9.210;2024-03-17T14:36:25;19.80;47.90
32139;DHT22;18644;48.700;9.210;2024-03-17T14:38:53;19.90;48.00
32139;DHT22;18644;48.700;9.210;2024-03-17T14:41:22;20.00;47.70
32139;DHT22;18644;48.700;9.210;2024-03-17T14:43:49;20.10;47.60
32139;DHT22;18644;48.700;9.210;2024-03-17T14:46:18;20.20;47.80
32139;DHT22;18644;48.700;9.210;2024-03-17T14:48:44;20.40;47.50
32139;DHT22;18644;48.700;9.210;2024-03-17T14:51:12;20.50;47.20
32139;DHT22;18644;48.700;9.210;2024-03-17T14:53:39;20.60;47.30
32139;DHT22;18644;48.700;9.210;2024-03-17T14:56:14;20.60;47.20
32139;DHT22;18644;48.700;9.210;2024-03-17T14:58:44;20.70;47.10
32139;DHT22;18644;48.700;9.210;2024-03-17T15:01:13;20.80;47.40
32139;DHT22;18644;48.700;9.210;2024-03-17T15:03:40;20.80;46.60
32139;DHT22;18644;48.700;9.210;2024-03-17T15:06:10;20.90;46.00
32139;DHT22;18644;48.700;9.210;2024-03-17T15:08:38;20.90;45.80
32139;DHT22;18644;48.700;9.210;2024-03-17T15:11:05;20.90;45.20
32139;DHT22;18644;48.700;9.210;2024-03-17T15:13:34;20.90;45.00
32139;DHT22;18644;48.700;9.210;2024-03-17T15:16:04;20.90;44.90
32139;DHT22;18644;48.700;9.210;2024-03-17T15:18:31;20.80;44.50
32139;DHT22;18644;48.700;9.210;2024-03-17T15:21:00;20.70;44.30
32139;DHT22;18644;48.700;9.210;2024-03-17T15:23:31;20.60;44.40
32139;DHT22;18644;48.700;9.210;2024-03-17T15:26:01;20.50;44.60
32139;DHT22;18644;48.700;9.210;2024-03-17T15:28:33;20.40;44.70
32139;DHT22;18644;48.700;9.210;2024-03-17T15:31:04;20.40;44.70
32139;DHT22;18644;48.700;9.210;2024-03-17T15:33:31;20.30;44.90
32139;DHT22;18644;48.700;9.210;2024-03-17T15:36:02;20.20;45.50
32139;DHT22;18644;48.700;9.210;2024-03-17T15:38:31;20.20;45.60
32139;DHT22;18644;48.700;9.210;2024-03-17T15:40:59;20.10;45.50
32139;DHT22;18644;48.700;9.210;2024-03-17T15:43:26;20.10;45.20